ETNN

Norvenich Airport

Germany
TAF AMD ETNN 161815Z 1617/1702 VRB03KT 9999 NSW FEW070 BKN250 PROB30 1622/1702 VRB15G25KT 6000 SHRA BKN060CB CANCEL BY ETGL
Issued Valid From Valid To
Jul-16 @ 18:15 UTC
(2 hours ago)
Jul-16 @ 17:00 UTC
(3 hours ago)
Jul-17 @ 02:00 UTC
(in 6 hours)
Jul-16 @ 17:00 to Jul-17 @ 02:00
TAF AMD ETNN 161815Z 1617/1702 VRB03KT 9999 NSW FEW070 BKN250
Wind Visibility Clouds Conditions
Variable at 3 knots 10,000+ meters
  • Few at 7,000' AGL
  • Broken at 25,000' AGL
Probable  (Probability 30%) Jul-16 @ 22:00 to Jul-17 @ 02:00
PROB30 1622/1702 VRB15G25KT 6000 SHRA BKN060CB CANCEL BY ETGL
Wind Visibility Clouds Conditions
Variable at 15 knots
 Gusting to 25 knots
6,003 meters
  • Broken at 6,000' AGL
  • Rain
TAF AMD ETNN 161815Z 1617/1702 VRB03KT 9999 NSW FEW070 BKN250 PROB30 1622/1702 VRB15G25KT 6000 SHRA BKN060CB CANCEL BY ETGL
Issued Jul-16 @ 18:15 UTC
(2 hours ago)
Valid From Jul-16 @ 17:00 UTC
(3 hours ago)
Valid To Jul-17 @ 02:00 UTC
(in 6 hours)
Jul-16 @ 17:00 - Jul-17 @ 02:00
Wind Visibility
Variable at 3 knots 10,000+ meters
Clouds
  • Few at 7,000' AGL
  • Broken at 25,000' AGL
Conditions
Probability 30% Probable Jul-16 @ 22:00 - Jul-17 @ 02:00
Wind Visibility
Variable at 15 knots
 Gusting to 25 knots
6,003 meters
Clouds
  • Broken at 6,000' AGL
Conditions
  • Rain